Time;durP1;ratioP1;P1;durP2;ratioP2;P2;SDS_P1;SDS_P2;PMS_P1;PMS_P2;Temp;Humidity;BMP_temperature;BMP_pressure;BME280_temperature;BME280_humidity;BME280_pressure;Samples;Min_cycle;Max_cycle;Signal;HPM_P1;HPM_P2
2021/10/18 00:02:10;;;;;;;4.05;3.50;;;;;;;;;;5067313;28;20499;-56
2021/10/18 00:04:36;;;;;;;5.35;4.03;;;;;;;;;;5070359;28;20009;-56
2021/10/18 00:07:02;;;;;;;4.93;3.42;;;;;;;;;;5087187;28;20040;-56
2021/10/18 00:09:28;;;;;;;6.65;4.38;;;;;;;;;;5083684;28;20024;-55
2021/10/18 00:11:55;;;;;;;6.28;4.82;;;;;;;;;;5067752;28;20025;-55
2021/10/18 00:14:21;;;;;;;6.22;4.15;;;;;;;;;;5068334;28;20036;-55
2021/10/18 00:16:47;;;;;;;6.85;4.38;;;;;;;;;;5068159;28;20035;-55
2021/10/18 00:19:13;;;;;;;5.50;4.15;;;;;;;;;;5067892;28;20118;-55
2021/10/18 00:21:39;;;;;;;4.93;3.80;;;;;;;;;;5068582;28;20029;-55
2021/10/18 00:24:06;;;;;;;4.63;3.47;;;;;;;;;;5068279;28;20021;-55
2021/10/18 00:26:32;;;;;;;5.38;4.00;;;;;;;;;;5068085;28;20032;-54
2021/10/18 00:28:58;;;;;;;5.45;3.67;;;;;;;;;;5068026;28;20032;-55
2021/10/18 00:31:24;;;;;;;4.93;3.75;;;;;;;;;;5067371;28;20369;-56
2021/10/18 00:33:50;;;;;;;4.78;3.30;;;;;;;;;;5067160;28;20115;-55
2021/10/18 00:36:17;;;;;;;5.20;3.63;;;;;;;;;;5067450;28;20033;-55
2021/10/18 00:38:43;;;;;;;5.60;3.85;;;;;;;;;;5067401;28;20021;-55
2021/10/18 00:41:09;;;;;;;5.80;3.92;;;;;;;;;;5067944;28;20044;-56
2021/10/18 00:43:35;;;;;;;4.57;3.53;;;;;;;;;;5067961;28;20017;-56
2021/10/18 00:46:01;;;;;;;5.40;3.45;;;;;;;;;;5066671;28;20538;-56
2021/10/18 00:48:28;;;;;;;4.25;3.60;;;;;;;;;;5066785;28;20078;-54
2021/10/18 00:50:56;;;;;;;5.70;3.78;;;;;;;;;;5067219;28;20025;-55
2021/10/18 00:53:25;;;;;;;4.25;3.30;;;;;;;;;;5067396;28;20036;-55
2021/10/18 00:55:51;;;;;;;5.55;3.58;;;;;;;;;;5067327;28;20111;-55
2021/10/18 00:58:18;;;;;;;4.50;3.47;;;;;;;;;;5067247;28;20059;-55
2021/10/18 01:00:44;;;;;;;4.40;3.20;;;;;;;;;;5066109;28;20400;-55
2021/10/18 01:03:10;;;;;;;5.55;3.45;;;;;;;;;;5066709;28;20036;-56
2021/10/18 01:05:40;;;;;;;4.30;3.20;;;;;;;;;;5067897;28;20033;-55
2021/10/18 01:08:07;;;;;;;4.90;3.30;;;;;;;;;;5066569;28;20021;-56
2021/10/18 01:10:33;;;;;;;4.70;3.17;;;;;;;;;;5072751;28;20128;-55
2021/10/18 01:12:59;;;;;;;3.70;3.08;;;;;;;;;;5087727;28;20491;-55
2021/10/18 01:15:25;;;;;;;5.60;3.47;;;;;;;;;;5087436;28;20101;-55
2021/10/18 01:17:51;;;;;;;5.90;3.72;;;;;;;;;;5087198;28;20024;-55
2021/10/18 01:20:27;;;;;;;5.15;3.63;;;;;;;;;;5086958;28;20398;-55
2021/10/18 01:22:53;;;;;;;3.72;2.97;;;;;;;;;;5087000;28;20024;-55
2021/10/18 01:25:20;;;;;;;5.43;3.90;;;;;;;;;;5084943;28;20036;-55
2021/10/18 01:27:46;;;;;;;5.30;4.03;;;;;;;;;;5085355;28;20025;-56
2021/10/18 01:30:12;;;;;;;4.43;3.58;;;;;;;;;;5085758;28;20024;-55
2021/10/18 01:32:38;;;;;;;5.40;3.85;;;;;;;;;;5087464;28;20013;-55
2021/10/18 01:35:07;;;;;;;5.32;3.75;;;;;;;;;;5086519;28;20439;-56
2021/10/18 01:37:33;;;;;;;4.00;3.13;;;;;;;;;;5086706;28;20398;-55
2021/10/18 01:39:59;;;;;;;4.97;3.35;;;;;;;;;;5087012;28;20024;-56
2021/10/18 01:42:25;;;;;;;4.32;3.38;;;;;;;;;;5083569;28;20028;-56
2021/10/18 01:44:51;;;;;;;5.65;3.55;;;;;;;;;;5066511;28;20079;-55
2021/10/18 01:47:18;;;;;;;4.93;3.42;;;;;;;;;;5066185;28;20032;-56
2021/10/18 01:49:44;;;;;;;4.35;3.28;;;;;;;;;;5069112;28;20103;-56
2021/10/18 01:52:10;;;;;;;5.05;3.50;;;;;;;;;;5087083;28;20036;-55
2021/10/18 01:54:36;;;;;;;5.53;3.80;;;;;;;;;;5087420;28;20031;-54
2021/10/18 01:57:02;;;;;;;6.18;3.90;;;;;;;;;;5086293;28;20503;-56
2021/10/18 01:59:29;;;;;;;5.90;3.63;;;;;;;;;;5086951;28;20028;-55
2021/10/18 02:01:55;;;;;;;4.88;3.60;;;;;;;;;;5072241;28;20400;-55
2021/10/18 02:04:21;;;;;;;3.88;3.00;;;;;;;;;;5065998;28;20039;-55
2021/10/18 02:06:47;;;;;;;4.32;3.20;;;;;;;;;;5066371;28;20500;-55
2021/10/18 02:09:13;;;;;;;3.70;2.33;;;;;;;;;;5066238;28;20059;-55
2021/10/18 02:11:39;;;;;;;3.65;2.78;;;;;;;;;;5066957;28;20071;-55
2021/10/18 02:14:05;;;;;;;3.75;2.80;;;;;;;;;;5066511;28;20111;-54
2021/10/18 02:16:31;;;;;;;2.63;2.25;;;;;;;;;;5066259;28;20684;-55
2021/10/18 02:18:57;;;;;;;3.33;2.38;;;;;;;;;;5066448;28;20407;-55
2021/10/18 02:21:23;;;;;;;3.03;2.33;;;;;;;;;;5068959;28;20605;-55
2021/10/18 02:23:49;;;;;;;2.92;2.42;;;;;;;;;;5086688;28;20074;-56
2021/10/18 02:26:15;;;;;;;3.25;2.40;;;;;;;;;;5086323;28;20568;-55
2021/10/18 02:28:41;;;;;;;3.40;2.78;;;;;;;;;;5086674;28;20034;-56
2021/10/18 02:31:07;;;;;;;3.25;2.42;;;;;;;;;;5086582;28;20518;-56
2021/10/18 02:33:33;;;;;;;3.42;2.22;;;;;;;;;;5086216;28;20672;-55
2021/10/18 02:35:59;;;;;;;3.80;3.00;;;;;;;;;;5086308;28;20037;-56
2021/10/18 02:38:25;;;;;;;3.75;2.92;;;;;;;;;;5087141;28;20035;-55
2021/10/18 02:40:51;;;;;;;4.57;2.60;;;;;;;;;;5090361;28;20105;-55
2021/10/18 02:43:18;;;;;;;3.33;2.42;;;;;;;;;;5090132;28;20427;-55
2021/10/18 02:45:44;;;;;;;3.53;2.80;;;;;;;;;;5090170;28;20103;-55
2021/10/18 02:48:12;;;;;;;2.90;2.60;;;;;;;;;;5077443;28;20439;-55
2021/10/18 02:50:38;;;;;;;4.05;2.70;;;;;;;;;;5070655;28;20024;-54
2021/10/18 02:53:05;;;;;;;3.75;2.95;;;;;;;;;;5069656;28;20032;-55
2021/10/18 02:55:31;;;;;;;2.97;2.33;;;;;;;;;;5069906;28;20150;-55
2021/10/18 02:57:57;;;;;;;3.60;2.53;;;;;;;;;;5070044;28;20021;-56
2021/10/18 03:00:23;;;;;;;3.00;2.50;;;;;;;;;;5069491;28;20035;-55
2021/10/18 03:02:49;;;;;;;2.42;2.20;;;;;;;;;;5069503;28;20541;-55
2021/10/18 03:05:15;;;;;;;2.40;2.00;;;;;;;;;;5069715;28;20020;-56
2021/10/18 03:07:41;;;;;;;3.28;2.20;;;;;;;;;;5069669;28;20078;-56
2021/10/18 03:10:08;;;;;;;2.83;2.20;;;;;;;;;;5069984;28;20033;-56
2021/10/18 03:12:34;;;;;;;3.38;2.40;;;;;;;;;;5077014;28;20607;-55
2021/10/18 03:15:00;;;;;;;3.25;2.35;;;;;;;;;;5089892;28;20077;-56
2021/10/18 03:17:27;;;;;;;2.95;2.17;;;;;;;;;;5089591;28;20119;-55
2021/10/18 03:19:53;;;;;;;2.78;2.03;;;;;;;;;;5089742;28;20035;-54
2021/10/18 03:22:19;;;;;;;3.33;2.38;;;;;;;;;;5089462;28;20561;-55
2021/10/18 03:24:45;;;;;;;4.03;2.40;;;;;;;;;;5089736;28;20099;-55
2021/10/18 03:27:12;;;;;;;2.90;2.17;;;;;;;;;;5082497;28;20797;-55
2021/10/18 03:29:38;;;;;;;2.65;2.22;;;;;;;;;;5069935;28;20029;-55
2021/10/18 03:32:04;;;;;;;2.72;2.33;;;;;;;;;;5068697;28;20028;-55
2021/10/18 03:34:30;;;;;;;3.25;2.65;;;;;;;;;;5069277;28;20545;-55
2021/10/18 03:36:56;;;;;;;3.38;2.90;;;;;;;;;;5068991;28;20475;-55
2021/10/18 03:39:22;;;;;;;3.38;2.58;;;;;;;;;;5069080;28;20029;-54
2021/10/18 03:41:48;;;;;;;2.92;2.60;;;;;;;;;;5069170;28;20024;-55
2021/10/18 03:44:14;;;;;;;4.05;3.35;;;;;;;;;;5068839;28;20020;-55
2021/10/18 03:46:40;;;;;;;2.50;2.30;;;;;;;;;;5069385;28;20056;-55
2021/10/18 03:49:06;;;;;;;4.50;3.22;;;;;;;;;;5069004;28;20024;-55
2021/10/18 03:51:32;;;;;;;3.08;2.45;;;;;;;;;;5068142;28;20411;-55
2021/10/18 03:53:58;;;;;;;3.28;2.95;;;;;;;;;;5068908;28;20020;-55
2021/10/18 03:56:24;;;;;;;3.78;2.85;;;;;;;;;;5068510;28;20890;-55
2021/10/18 03:58:50;;;;;;;2.90;2.60;;;;;;;;;;5068526;28;20547;-54
2021/10/18 04:01:16;;;;;;;3.35;2.45;;;;;;;;;;5068391;28;20699;-54
2021/10/18 04:03:42;;;;;;;3.53;2.70;;;;;;;;;;5076279;28;20612;-55
2021/10/18 04:06:08;;;;;;;3.10;2.50;;;;;;;;;;5089304;28;20028;-55
2021/10/18 04:08:37;;;;;;;2.85;2.30;;;;;;;;;;5088682;28;20570;-54
2021/10/18 04:11:03;;;;;;;3.72;2.60;;;;;;;;;;5088095;28;20047;-55
2021/10/18 04:13:29;;;;;;;4.47;2.42;;;;;;;;;;5088892;28;20020;-55
2021/10/18 04:15:55;;;;;;;3.10;2.60;;;;;;;;;;5088524;28;20453;-55
2021/10/18 04:18:21;;;;;;;3.45;2.63;;;;;;;;;;5087519;28;20028;-55
2021/10/18 04:20:48;;;;;;;3.10;2.17;;;;;;;;;;5088273;28;20519;-53
2021/10/18 04:23:14;;;;;;;2.70;2.42;;;;;;;;;;5088402;28;20031;-54
2021/10/18 04:25:40;;;;;;;3.22;2.40;;;;;;;;;;5088279;28;20032;-55
2021/10/18 04:28:06;;;;;;;3.13;2.40;;;;;;;;;;5088851;28;20479;-55
2021/10/18 04:30:32;;;;;;;2.47;2.22;;;;;;;;;;5088487;28;20430;-55
2021/10/18 04:32:58;;;;;;;4.22;2.47;;;;;;;;;;5086461;28;20047;-55
2021/10/18 04:35:24;;;;;;;4.13;2.92;;;;;;;;;;5069681;28;20376;-55
2021/10/18 04:37:50;;;;;;;3.65;2.55;;;;;;;;;;5074804;28;20107;-55
2021/10/18 04:40:17;;;;;;;3.50;2.70;;;;;;;;;;5087909;28;20035;-54
2021/10/18 04:42:43;;;;;;;4.10;2.85;;;;;;;;;;5088113;28;20027;-55
2021/10/18 04:45:10;;;;;;;3.00;2.40;;;;;;;;;;5088594;28;20099;-55
2021/10/18 04:47:48;;;;;;;3.20;2.60;;;;;;;;;;5088508;28;20019;-55
2021/10/18 04:50:14;;;;;;;2.65;2.17;;;;;;;;;;5087233;28;20488;-54
2021/10/18 04:52:40;;;;;;;3.83;2.15;;;;;;;;;;5077872;28;20116;-55
2021/10/18 04:55:07;;;;;;;2.50;2.30;;;;;;;;;;5068086;28;20036;-55
2021/10/18 04:57:33;;;;;;;3.47;2.47;;;;;;;;;;5067367;28;20498;-55
2021/10/18 04:59:59;;;;;;;3.58;2.25;;;;;;;;;;5067377;28;20051;-55
2021/10/18 05:02:26;;;;;;;2.95;2.42;;;;;;;;;;5068292;28;20466;-55
2021/10/18 05:04:52;;;;;;;2.85;2.25;;;;;;;;;;5070106;28;20035;-55
2021/10/18 05:07:18;;;;;;;3.28;2.50;;;;;;;;;;5075918;28;20387;-55
2021/10/18 05:09:44;;;;;;;2.50;2.20;;;;;;;;;;5087109;28;20044;-54
2021/10/18 05:12:10;;;;;;;2.92;2.38;;;;;;;;;;5075738;28;20457;-55
2021/10/18 05:14:36;;;;;;;4.00;2.88;;;;;;;;;;5068241;28;20411;-54
2021/10/18 05:17:02;;;;;;;3.10;2.72;;;;;;;;;;5067666;28;20507;-55
2021/10/18 05:19:29;;;;;;;3.33;2.70;;;;;;;;;;5077044;28;20028;-54
2021/10/18 05:21:55;;;;;;;3.05;2.55;;;;;;;;;;5076429;28;20487;-55
2021/10/18 05:24:21;;;;;;;3.72;2.70;;;;;;;;;;5080639;28;20089;-55
2021/10/18 05:26:47;;;;;;;3.47;2.80;;;;;;;;;;5074402;28;20113;-53
2021/10/18 05:29:14;;;;;;;5.15;3.45;;;;;;;;;;5086582;28;20028;-55
2021/10/18 05:31:40;;;;;;;4.28;3.00;;;;;;;;;;5070849;28;20039;-54
2021/10/18 05:34:06;;;;;;;4.80;3.35;;;;;;;;;;5073441;28;20522;-55
2021/10/18 05:36:32;;;;;;;4.57;3.20;;;;;;;;;;5065603;28;20687;-55
2021/10/18 05:38:58;;;;;;;4.20;3.17;;;;;;;;;;5081318;28;20495;-55
2021/10/18 05:41:24;;;;;;;4.47;3.50;;;;;;;;;;5064286;28;20586;-55
2021/10/18 05:43:50;;;;;;;4.82;3.47;;;;;;;;;;5070157;28;20491;-55
2021/10/18 05:46:16;;;;;;;4.65;3.30;;;;;;;;;;5083890;28;20124;-53
2021/10/18 05:48:42;;;;;;;5.15;3.85;;;;;;;;;;5066486;28;20037;-54
2021/10/18 05:51:08;;;;;;;4.20;2.97;;;;;;;;;;5080524;28;20028;-55
2021/10/18 05:53:34;;;;;;;4.35;3.28;;;;;;;;;;5074793;28;20033;-55
2021/10/18 05:56:00;;;;;;;3.45;2.75;;;;;;;;;;5066425;28;20029;-55
2021/10/18 05:58:26;;;;;;;4.95;3.38;;;;;;;;;;5065818;28;20399;-55
2021/10/18 06:00:52;;;;;;;5.30;3.67;;;;;;;;;;5072547;28;20021;-54
2021/10/18 06:03:18;;;;;;;4.25;3.20;;;;;;;;;;5075896;28;20032;-54
2021/10/18 06:05:47;;;;;;;3.80;2.95;;;;;;;;;;5074913;28;20399;-55
2021/10/18 06:08:14;;;;;;;4.45;3.17;;;;;;;;;;5066418;28;20028;-55
2021/10/18 06:10:41;;;;;;;3.72;2.90;;;;;;;;;;5065494;28;20024;-56
2021/10/18 06:13:08;;;;;;;4.30;3.20;;;;;;;;;;5071013;28;20024;-55
2021/10/18 06:15:35;;;;;;;3.42;2.78;;;;;;;;;;5073251;28;20416;-55
2021/10/18 06:18:11;;;;;;;4.93;2.97;;;;;;;;;;5064486;28;20020;-55
2021/10/18 06:20:38;;;;;;;3.95;3.17;;;;;;;;;;5065473;28;20025;-55
2021/10/18 06:23:05;;;;;;;4.03;3.17;;;;;;;;;;5064171;28;20138;-56
2021/10/18 06:25:32;;;;;;;4.78;3.30;;;;;;;;;;5064791;28;20142;-55
2021/10/18 06:27:58;;;;;;;4.75;3.25;;;;;;;;;;5064715;28;20531;-55
2021/10/18 06:30:26;;;;;;;4.30;3.50;;;;;;;;;;5064208;28;20099;-54
2021/10/18 06:32:53;;;;;;;3.90;3.25;;;;;;;;;;5064548;28;20020;-55
2021/10/18 06:35:19;;;;;;;3.40;2.53;;;;;;;;;;5064323;28;20504;-55
2021/10/18 06:37:45;;;;;;;3.88;2.95;;;;;;;;;;5064541;28;20114;-55
2021/10/18 06:40:12;;;;;;;4.72;3.05;;;;;;;;;;5064682;28;20107;-55
2021/10/18 06:42:38;;;;;;;5.00;2.97;;;;;;;;;;5065135;28;20025;-55
2021/10/18 06:45:05;;;;;;;3.72;2.80;;;;;;;;;;5064084;28;20027;-56
2021/10/18 06:47:31;;;;;;;3.17;2.33;;;;;;;;;;5064421;28;20067;-55
2021/10/18 06:49:58;;;;;;;4.40;3.05;;;;;;;;;;5064126;28;20021;-54
2021/10/18 06:52:29;;;;;;;3.50;2.72;;;;;;;;;;5064317;28;20032;-55
2021/10/18 06:54:55;;;;;;;4.35;3.17;;;;;;;;;;5064561;28;20429;-55
2021/10/18 06:57:21;;;;;;;4.00;2.50;;;;;;;;;;5064073;28;20043;-55
2021/10/18 06:59:47;;;;;;;3.58;2.97;;;;;;;;;;5064218;28;20025;-54
2021/10/18 07:02:14;;;;;;;3.67;2.97;;;;;;;;;;5064158;28;20025;-54
2021/10/18 07:04:40;;;;;;;4.03;3.03;;;;;;;;;;5065056;28;20025;-55
2021/10/18 07:07:07;;;;;;;4.63;3.20;;;;;;;;;;5064804;28;20039;-53
2021/10/18 07:09:33;;;;;;;4.82;3.55;;;;;;;;;;5064414;28;20033;-54
2021/10/18 07:12:00;;;;;;;5.32;3.90;;;;;;;;;;5064475;28;20038;-55
2021/10/18 07:14:26;;;;;;;6.10;4.05;;;;;;;;;;5063993;28;20112;-53
2021/10/18 07:16:53;;;;;;;5.82;3.42;;;;;;;;;;5064396;28;20115;-54
2021/10/18 07:19:19;;;;;;;4.82;2.97;;;;;;;;;;5064042;28;20085;-54
2021/10/18 07:21:46;;;;;;;3.28;2.85;;;;;;;;;;5064105;28;20020;-54
2021/10/18 07:24:12;;;;;;;4.28;2.85;;;;;;;;;;5064089;28;20052;-53
2021/10/18 07:26:38;;;;;;;4.05;3.10;;;;;;;;;;5067317;28;20025;-54
2021/10/18 07:29:05;;;;;;;3.72;3.05;;;;;;;;;;5067461;28;20116;-54
2021/10/18 07:31:31;;;;;;;3.30;2.60;;;;;;;;;;5068168;28;20376;-55
2021/10/18 07:34:02;;;;;;;4.95;3.08;;;;;;;;;;5067528;28;20035;-55
2021/10/18 07:36:29;;;;;;;2.63;2.40;;;;;;;;;;5067874;28;20032;-54
2021/10/18 07:39:04;;;;;;;3.25;2.63;;;;;;;;;;5067493;28;20025;-55
2021/10/18 07:41:31;;;;;;;2.75;2.08;;;;;;;;;;5067342;28;20104;-54
2021/10/18 07:43:57;;;;;;;3.10;2.38;;;;;;;;;;5067162;28;20024;-54
2021/10/18 07:46:24;;;;;;;3.35;2.55;;;;;;;;;;5067140;28;20028;-55
2021/10/18 07:48:50;;;;;;;2.88;2.40;;;;;;;;;;5066615;28;20033;-55
2021/10/18 07:51:17;;;;;;;2.88;2.40;;;;;;;;;;5066997;28;20501;-54
2021/10/18 07:53:44;;;;;;;3.20;2.70;;;;;;;;;;5067151;28;20040;-54
2021/10/18 07:56:11;;;;;;;3.75;2.53;;;;;;;;;;5067630;28;20040;-55
2021/10/18 07:58:37;;;;;;;3.58;2.50;;;;;;;;;;5067911;28;20032;-53
2021/10/18 08:01:03;;;;;;;3.42;2.50;;;;;;;;;;5066510;28;20452;-54
2021/10/18 08:03:29;;;;;;;3.58;2.70;;;;;;;;;;5067485;28;20056;-55
2021/10/18 08:05:55;;;;;;;4.30;2.65;;;;;;;;;;5067005;28;20496;-54
2021/10/18 08:08:22;;;;;;;2.75;2.05;;;;;;;;;;5066985;28;20032;-54
2021/10/18 08:10:49;;;;;;;2.35;1.90;;;;;;;;;;5066806;28;20032;-54
2021/10/18 08:13:15;;;;;;;2.28;1.88;;;;;;;;;;5065372;28;20024;-54
2021/10/18 08:15:41;;;;;;;2.40;2.08;;;;;;;;;;5066486;28;20025;-55
2021/10/18 08:18:07;;;;;;;3.25;2.58;;;;;;;;;;5067356;28;20294;-54
2021/10/18 08:20:33;;;;;;;3.28;1.90;;;;;;;;;;5066985;28;20062;-54
2021/10/18 08:23:00;;;;;;;3.17;2.30;;;;;;;;;;5066755;28;20029;-55
2021/10/18 08:25:26;;;;;;;2.78;2.20;;;;;;;;;;5066824;28;20062;-54
2021/10/18 08:27:52;;;;;;;3.30;2.38;;;;;;;;;;5072607;28;20033;-55
2021/10/18 08:30:18;;;;;;;4.90;2.95;;;;;;;;;;5066408;28;20086;-54
2021/10/18 08:32:44;;;;;;;4.63;3.15;;;;;;;;;;5066352;28;20027;-55
2021/10/18 08:35:11;;;;;;;4.80;3.00;;;;;;;;;;5066489;28;20107;-55
2021/10/18 08:40:29;;;;;;;3.35;2.70;;;;;;;;;;5066287;28;20036;-55
2021/10/18 08:42:59;;;;;;;4.10;2.63;;;;;;;;;;5066305;28;20017;-55
2021/10/18 08:45:25;;;;;;;2.67;2.28;;;;;;;;;;5066016;28;20415;-55
2021/10/18 08:47:53;;;;;;;3.35;2.42;;;;;;;;;;5066138;28;20078;-55
2021/10/18 08:50:20;;;;;;;2.60;2.03;;;;;;;;;;5065459;28;20058;-55
2021/10/18 08:52:46;;;;;;;3.15;2.45;;;;;;;;;;5066127;28;20103;-55
2021/10/18 08:55:12;;;;;;;3.25;2.33;;;;;;;;;;5065907;28;20486;-55
2021/10/18 08:57:38;;;;;;;2.78;2.20;;;;;;;;;;5066743;28;20028;-54
2021/10/18 09:00:05;;;;;;;2.90;2.10;;;;;;;;;;5085138;28;20024;-55
2021/10/18 09:02:36;;;;;;;2.20;2.00;;;;;;;;;;5068110;28;20035;-55
2021/10/18 09:05:07;;;;;;;2.38;2.00;;;;;;;;;;5078389;28;20081;-54
2021/10/18 09:07:37;;;;;;;2.05;1.70;;;;;;;;;;5068493;28;20032;-55
2021/10/18 09:10:10;;;;;;;2.95;2.08;;;;;;;;;;5072761;28;20514;-55
2021/10/18 09:12:39;;;;;;;2.17;1.92;;;;;;;;;;5077460;28;20033;-55
2021/10/18 09:15:20;;;;;;;2.85;2.00;;;;;;;;;;5085767;28;20374;-54
2021/10/18 09:17:51;;;;;;;3.40;2.50;;;;;;;;;;5083717;28;20032;-53
2021/10/18 09:20:21;;;;;;;3.28;2.22;;;;;;;;;;5067097;28;20060;-55
2021/10/18 09:22:47;;;;;;;5.05;2.47;;;;;;;;;;5066655;28;20030;-55
2021/10/18 09:25:30;;;;;;;2.28;2.00;;;;;;;;;;5066514;28;20033;-55
2021/10/18 09:28:09;;;;;;;3.15;2.60;;;;;;;;;;5079863;28;20028;-55
2021/10/18 09:30:36;;;;;;;3.08;2.40;;;;;;;;;;5084969;28;20032;-54
2021/10/18 09:33:05;;;;;;;2.53;1.90;;;;;;;;;;5074878;28;20024;-54
2021/10/18 09:35:32;;;;;;;2.85;2.17;;;;;;;;;;5093117;28;20537;-55
2021/10/18 09:38:07;;;;;;;2.20;1.83;;;;;;;;;;5079386;28;20124;-55
2021/10/18 09:40:34;;;;;;;1.92;1.73;;;;;;;;;;5066680;28;20032;-55
2021/10/18 09:43:51;;;;;;;2.30;2.00;;;;;;;;;;5076766;28;20402;-55
2021/10/18 09:45:59;;;;;;;1.60;1.50;;;;;;;;;;5062247;28;20090;-54
2021/10/18 10:53:04;;;;;;;1.67;1.27;;;;;;;;;;5064154;28;20094;-54
2021/10/18 10:55:34;;;;;;;1.65;1.40;;;;;;;;;;5064606;28;20112;-54
2021/10/18 10:58:23;;;;;;;2.13;1.48;;;;;;;;;;5064142;28;20047;-54
2021/10/18 11:00:49;;;;;;;4.22;2.20;;;;;;;;;;5065698;28;20032;-54
2021/10/18 11:03:23;;;;;;;2.35;1.95;;;;;;;;;;5067895;28;20384;-55
2021/10/18 11:05:56;;;;;;;2.05;1.73;;;;;;;;;;5068112;28;20094;-54
2021/10/18 11:08:39;;;;;;;2.42;1.83;;;;;;;;;;5067895;28;20056;-54
2021/10/18 11:11:12;;;;;;;1.75;1.52;;;;;;;;;;5067867;28;20107;-54
2021/10/18 11:13:44;;;;;;;1.73;1.60;;;;;;;;;;5075020;28;20020;-54
2021/10/18 11:16:10;;;;;;;1.42;1.33;;;;;;;;;;5069960;28;20025;-56
2021/10/18 11:18:37;;;;;;;2.00;1.77;;;;;;;;;;5082412;28;20028;-54
2021/10/18 11:21:16;;;;;;;1.52;1.20;;;;;;;;;;5074037;28;20170;-54
2021/10/18 11:23:53;;;;;;;2.30;1.75;;;;;;;;;;5067053;28;20036;-55
2021/10/18 11:26:19;;;;;;;2.20;1.60;;;;;;;;;;5067140;28;20036;-55
2021/10/18 11:28:45;;;;;;;1.67;1.55;;;;;;;;;;5067362;28;20032;-55
2021/10/18 11:31:11;;;;;;;1.95;1.50;;;;;;;;;;5067546;28;20029;-56
2021/10/18 11:33:39;;;;;;;1.63;1.40;;;;;;;;;;5067101;28;20032;-54
2021/10/18 11:36:18;;;;;;;2.03;1.83;;;;;;;;;;5067202;28;20027;-55
2021/10/18 11:38:45;;;;;;;1.90;1.70;;;;;;;;;;5080433;28;20494;-55
2021/10/18 11:41:11;;;;;;;1.80;1.38;;;;;;;;;;5088751;28;20027;-56
2021/10/18 11:43:37;;;;;;;2.45;1.77;;;;;;;;;;5083243;28;20095;-56
2021/10/18 11:46:03;;;;;;;1.90;1.70;;;;;;;;;;5102903;28;20050;-55
2021/10/18 11:48:30;;;;;;;1.92;1.45;;;;;;;;;;5109057;28;20522;-55
2021/10/18 11:51:01;;;;;;;1.48;1.38;;;;;;;;;;5109548;28;20489;-55
2021/10/18 11:53:32;;;;;;;1.80;1.70;;;;;;;;;;5108213;28;20065;-56
2021/10/18 11:56:00;;;;;;;2.15;1.70;;;;;;;;;;5069551;28;20028;-56
2021/10/18 11:58:27;;;;;;;1.92;1.70;;;;;;;;;;5068622;28;20039;-55
2021/10/18 12:01:00;;;;;;;1.63;1.50;;;;;;;;;;5076718;28;20196;-55
2021/10/18 12:03:27;;;;;;;1.20;1.10;;;;;;;;;;5088951;28;20395;-56
2021/10/18 12:05:54;;;;;;;1.38;1.27;;;;;;;;;;5072858;28;20111;-55
2021/10/18 12:08:21;;;;;;;1.67;1.38;;;;;;;;;;5068450;28;20104;-56
2021/10/18 12:10:48;;;;;;;1.85;1.60;;;;;;;;;;5067866;28;20036;-54
2021/10/18 12:13:16;;;;;;;1.65;1.55;;;;;;;;;;5067968;28;20044;-54
2021/10/18 12:15:45;;;;;;;1.45;1.35;;;;;;;;;;5068438;28;20118;-56
2021/10/18 12:18:12;;;;;;;1.30;1.20;;;;;;;;;;5085368;28;20025;-56
2021/10/18 12:20:46;;;;;;;1.95;1.48;;;;;;;;;;5088198;28;20024;-54
2021/10/18 12:23:38;;;;;;;1.85;1.70;;;;;;;;;;5086734;28;20158;-55
2021/10/18 12:26:06;;;;;;;2.03;1.65;;;;;;;;;;5085301;28;20040;-54
2021/10/18 12:28:42;;;;;;;1.98;1.77;;;;;;;;;;5087422;28;20056;-55
2021/10/18 12:31:28;;;;;;;2.63;2.42;;;;;;;;;;5087100;28;20032;-55
2021/10/18 12:34:04;;;;;;;2.22;2.00;;;;;;;;;;5086723;28;20208;-56
2021/10/18 12:36:30;;;;;;;1.83;1.50;;;;;;;;;;5086684;28;20035;-54
2021/10/18 12:38:56;;;;;;;2.90;1.98;;;;;;;;;;5086576;28;20016;-55
2021/10/18 12:41:23;;;;;;;1.88;1.63;;;;;;;;;;5086058;28;20024;-55
2021/10/18 12:43:50;;;;;;;1.58;1.40;;;;;;;;;;5086599;28;20028;-56
2021/10/18 12:46:17;;;;;;;1.70;1.60;;;;;;;;;;5086349;28;20510;-53
2021/10/18 12:49:04;;;;;;;2.10;1.60;;;;;;;;;;5085883;28;20024;-55
2021/10/18 12:51:34;;;;;;;2.42;1.55;;;;;;;;;;5086328;28;20449;-55
2021/10/18 12:54:20;;;;;;;2.65;2.05;;;;;;;;;;5085816;28;20542;-55
2021/10/18 12:56:59;;;;;;;2.78;1.85;;;;;;;;;;5086110;28;20082;-56
2021/10/18 12:59:25;;;;;;;2.05;1.60;;;;;;;;;;5086342;28;20391;-55
2021/10/18 13:02:10;;;;;;;2.65;2.00;;;;;;;;;;5086011;28;20027;-55
2021/10/18 13:04:37;;;;;;;2.20;1.60;;;;;;;;;;5086786;28;20108;-55
2021/10/18 13:07:03;;;;;;;1.85;1.60;;;;;;;;;;5085819;28;20028;-56
2021/10/18 13:09:29;;;;;;;1.60;1.30;;;;;;;;;;5085904;28;20450;-56
2021/10/18 13:11:55;;;;;;;1.73;1.30;;;;;;;;;;5085639;28;20024;-55
2021/10/18 13:14:21;;;;;;;1.40;1.30;;;;;;;;;;5085591;28;20044;-55
2021/10/18 13:16:47;;;;;;;1.50;1.38;;;;;;;;;;5085723;28;20035;-56
2021/10/18 13:19:14;;;;;;;1.67;1.48;;;;;;;;;;5085771;28;20048;-55
2021/10/18 13:21:41;;;;;;;1.23;1.13;;;;;;;;;;5085529;28;20314;-56
2021/10/18 13:24:07;;;;;;;1.58;1.30;;;;;;;;;;5085228;28;20024;-55
2021/10/18 13:26:34;;;;;;;1.60;1.40;;;;;;;;;;5085663;28;20042;-55
2021/10/18 13:29:01;;;;;;;1.60;1.27;;;;;;;;;;5085758;28;20028;-55
2021/10/18 13:31:28;;;;;;;1.88;1.60;;;;;;;;;;5085658;28;20465;-56
2021/10/18 13:33:55;;;;;;;1.60;1.50;;;;;;;;;;5085698;28;20073;-55
2021/10/18 13:36:21;;;;;;;2.00;1.60;;;;;;;;;;5085075;28;20418;-56
2021/10/18 13:38:47;;;;;;;1.90;1.58;;;;;;;;;;5084146;28;20562;-56
2021/10/18 13:41:14;;;;;;;2.58;1.60;;;;;;;;;;5085249;28;20110;-56
2021/10/18 13:43:40;;;;;;;1.40;1.30;;;;;;;;;;5085241;28;20024;-56
2021/10/18 13:46:06;;;;;;;1.38;1.27;;;;;;;;;;5085833;28;20026;-55
2021/10/18 13:48:32;;;;;;;2.55;1.60;;;;;;;;;;5085038;28;20056;-55
2021/10/18 13:50:58;;;;;;;1.40;1.30;;;;;;;;;;5085207;28;20032;-55
2021/10/18 13:53:25;;;;;;;1.67;1.13;;;;;;;;;;5085023;28;20034;-55
2021/10/18 13:55:51;;;;;;;1.30;1.10;;;;;;;;;;5084933;28;20687;-55
2021/10/18 13:58:18;;;;;;;2.58;1.30;;;;;;;;;;5084939;28;20016;-56
2021/10/18 14:00:45;;;;;;;1.40;1.30;;;;;;;;;;5083959;28;20517;-55
2021/10/18 14:03:14;;;;;;;1.25;1.15;;;;;;;;;;5084979;28;20399;-56
2021/10/18 14:05:40;;;;;;;1.85;1.13;;;;;;;;;;5085751;28;20044;-55
2021/10/18 14:08:06;;;;;;;1.77;1.27;;;;;;;;;;5085552;28;20024;-56
2021/10/18 14:10:32;;;;;;;1.23;1.10;;;;;;;;;;5084751;28;20097;-55
2021/10/18 14:12:58;;;;;;;2.92;1.30;;;;;;;;;;5085097;28;20024;-55
2021/10/18 14:15:25;;;;;;;2.95;1.00;;;;;;;;;;5084647;28;20426;-54
2021/10/18 14:17:51;;;;;;;2.03;1.30;;;;;;;;;;5085018;28;20024;-56
2021/10/18 14:20:18;;;;;;;1.23;1.13;;;;;;;;;;5084642;28;20410;-55
2021/10/18 14:22:45;;;;;;;2.17;1.30;;;;;;;;;;5084794;28;20024;-55
2021/10/18 14:25:11;;;;;;;0.98;0.90;;;;;;;;;;5084224;28;20573;-56
2021/10/18 14:27:38;;;;;;;1.23;1.08;;;;;;;;;;5085888;28;20493;-56
2021/10/18 14:30:04;;;;;;;1.85;1.10;;;;;;;;;;5084717;28;20063;-56
2021/10/18 14:32:31;;;;;;;1.17;1.05;;;;;;;;;;5084728;28;20024;-55
2021/10/18 14:34:57;;;;;;;1.40;1.20;;;;;;;;;;5086731;28;20032;-55
2021/10/18 14:37:25;;;;;;;1.20;1.10;;;;;;;;;;5088621;28;20214;-56
2021/10/18 14:39:51;;;;;;;1.58;1.10;;;;;;;;;;5088730;28;20027;-55
2021/10/18 14:42:18;;;;;;;1.65;1.13;;;;;;;;;;5088339;28;20512;-56
2021/10/18 14:44:45;;;;;;;1.50;1.10;;;;;;;;;;5088976;28;20059;-55
2021/10/18 14:47:11;;;;;;;1.20;1.00;;;;;;;;;;5088849;28;20024;-56
2021/10/18 14:49:37;;;;;;;1.30;1.20;;;;;;;;;;5089023;28;20024;-55
2021/10/18 14:52:04;;;;;;;1.38;1.27;;;;;;;;;;5088467;28;20035;-55
2021/10/18 14:54:29;;;;;;;1.10;1.00;;;;;;;;;;5088559;28;20606;-56
2021/10/18 14:56:56;;;;;;;1.42;1.20;;;;;;;;;;5088540;28;20027;-55
2021/10/18 14:59:22;;;;;;;1.17;0.95;;;;;;;;;;5088328;28;20051;-55
2021/10/18 15:01:49;;;;;;;1.17;1.08;;;;;;;;;;5088369;28;20576;-56
2021/10/18 15:04:15;;;;;;;1.30;1.20;;;;;;;;;;5088349;28;20077;-56
2021/10/18 15:06:41;;;;;;;1.77;1.20;;;;;;;;;;5084049;28;20024;-55
2021/10/18 15:09:07;;;;;;;1.10;0.95;;;;;;;;;;5076669;28;20123;-55
2021/10/18 15:11:33;;;;;;;1.05;0.98;;;;;;;;;;5098588;28;20110;-55
2021/10/18 15:14:00;;;;;;;1.38;1.00;;;;;;;;;;5086967;28;20043;-55
2021/10/18 15:16:26;;;;;;;1.75;1.10;;;;;;;;;;5088413;28;20024;-55
2021/10/18 15:18:53;;;;;;;1.42;1.05;;;;;;;;;;5088525;28;20028;-56
2021/10/18 15:21:19;;;;;;;1.20;1.10;;;;;;;;;;5087844;28;20055;-54
2021/10/18 15:23:47;;;;;;;1.05;1.00;;;;;;;;;;5087565;28;20059;-55
2021/10/18 15:26:13;;;;;;;1.10;1.00;;;;;;;;;;5087653;28;20027;-55
2021/10/18 15:28:39;;;;;;;1.20;1.00;;;;;;;;;;5088717;28;20032;-55
2021/10/18 15:31:06;;;;;;;1.35;1.13;;;;;;;;;;5077982;28;20108;-55
2021/10/18 15:33:32;;;;;;;1.80;1.17;;;;;;;;;;5076312;28;20366;-56
2021/10/18 15:35:58;;;;;;;1.50;1.38;;;;;;;;;;5075965;28;20032;-56
2021/10/18 15:38:25;;;;;;;1.23;1.10;;;;;;;;;;5073379;28;20111;-56
2021/10/18 15:40:51;;;;;;;1.45;1.27;;;;;;;;;;5078542;28;20021;-56
2021/10/18 15:43:17;;;;;;;1.52;1.30;;;;;;;;;;5071290;28;20401;-56
2021/10/18 15:45:43;;;;;;;1.55;0.95;;;;;;;;;;5070384;28;20029;-56
2021/10/18 15:48:09;;;;;;;1.42;1.17;;;;;;;;;;5078983;28;20089;-56
2021/10/18 15:50:35;;;;;;;1.17;1.00;;;;;;;;;;5078808;28;20028;-55
2021/10/18 15:53:01;;;;;;;1.30;1.20;;;;;;;;;;5079814;28;20123;-56